Time;durP1;ratioP1;P1;durP2;ratioP2;P2;SDS_P1;SDS_P2;PMS_P1;PMS_P2;Temp;Humidity;BMP_temperature;BMP_pressure;BME280_temperature;BME280_humidity;BME280_pressure;Samples;Min_cycle;Max_cycle;Signal;HPM_P1;HPM_P2
2022/11/19 00:01:19;;;;;;;7.53;6.30;;;8.20;99.90;;;;;;5071532;28;20677;-66
2022/11/19 00:03:47;;;;;;;8.50;6.53;;;8.20;99.90;;;;;;5070921;28;20200;-66
2022/11/19 00:06:18;;;;;;;8.98;6.10;;;8.20;99.90;;;;;;5071840;28;20196;-66
2022/11/19 00:08:46;;;;;;;10.18;7.45;;;8.20;99.90;;;;;;5069422;28;20192;-66
2022/11/19 00:12:53;;;;;;;8.02;7.03;;;8.20;99.90;;;;;;5066408;28;20220;-66
2022/11/19 00:14:05;;;;;;;14.25;6.60;;;8.20;99.90;;;;;;5056707;28;20689;-66
2022/11/19 00:16:33;;;;;;;11.07;6.57;;;8.20;99.90;;;;;;5062955;28;20682;-66
2022/11/19 00:19:01;;;;;;;14.68;7.15;;;8.20;99.90;;;;;;5061757;28;20567;-66
2022/11/19 00:21:31;;;;;;;9.30;7.63;;;8.20;99.90;;;;;;5071342;28;20210;-66
2022/11/19 00:23:58;;;;;;;9.80;6.82;;;8.20;99.90;;;;;;5068276;28;20188;-66
2022/11/19 00:26:27;;;;;;;9.38;6.75;;;8.20;99.90;;;;;;5065707;28;20557;-65
2022/11/19 00:28:55;;;;;;;7.93;6.43;;;8.20;99.90;;;;;;5063713;28;20640;-66
2022/11/19 00:31:23;;;;;;;7.60;6.80;;;8.20;99.90;;;;;;5051765;28;20588;-67
2022/11/19 00:33:53;;;;;;;6.88;6.15;;;8.20;99.90;;;;;;5066071;28;20233;-66
2022/11/19 00:36:21;;;;;;;10.45;6.88;;;8.20;99.90;;;;;;5071784;28;20662;-66
2022/11/19 00:38:51;;;;;;;8.85;7.20;;;8.20;99.90;;;;;;5070811;28;20575;-65
2022/11/19 00:41:19;;;;;;;9.50;6.97;;;8.10;99.90;;;;;;5072356;28;20649;-67
2022/11/19 00:43:47;;;;;;;10.55;7.03;;;8.10;99.90;;;;;;5071218;28;20203;-66
2022/11/19 00:46:16;;;;;;;11.45;6.60;;;8.00;99.90;;;;;;5055129;28;20201;-66
2022/11/19 00:48:44;;;;;;;33.65;8.52;;;8.00;99.90;;;;;;5051335;28;20567;-66
2022/11/19 00:51:12;;;;;;;8.75;6.35;;;8.00;99.90;;;;;;5051768;28;20560;-66
2022/11/19 00:53:40;;;;;;;8.27;6.75;;;8.00;99.90;;;;;;5055549;28;20327;-66
2022/11/19 00:56:11;;;;;;;15.95;7.03;;;8.00;99.90;;;;;;5054468;28;20725;-65
2022/11/19 00:58:40;;;;;;;9.15;6.88;;;8.00;99.90;;;;;;5063751;28;20714;-65
2022/11/19 01:01:08;;;;;;;7.35;6.60;;;7.90;99.90;;;;;;5073235;28;20196;-66
2022/11/19 01:03:37;;;;;;;10.07;6.53;;;7.90;99.90;;;;;;5070204;28;20566;-66
2022/11/19 01:06:06;;;;;;;7.15;6.43;;;7.90;99.90;;;;;;5062253;28;20196;-65
2022/11/19 01:08:35;;;;;;;6.82;6.10;;;7.80;99.90;;;;;;5071415;28;20566;-66
2022/11/19 01:11:07;;;;;;;11.18;6.45;;;7.80;99.90;;;;;;5070206;28;20222;-65
2022/11/19 01:13:36;;;;;;;8.88;7.82;;;7.70;99.90;;;;;;5075009;28;20192;-66
2022/11/19 01:16:08;;;;;;;13.93;7.15;;;7.70;99.90;;;;;;5068313;28;20200;-66
2022/11/19 01:18:37;;;;;;;10.32;7.72;;;7.70;99.90;;;;;;5054210;28;20200;-66
2022/11/19 01:21:06;;;;;;;10.05;6.53;;;7.60;99.90;;;;;;5064430;28;20666;-66
2022/11/19 01:23:34;;;;;;;7.75;6.88;;;7.60;99.90;;;;;;5069585;28;20619;-66
2022/11/19 01:26:03;;;;;;;9.25;6.53;;;7.50;99.90;;;;;;5063472;28;20203;-66
2022/11/19 01:28:31;;;;;;;8.30;6.53;;;7.50;99.90;;;;;;5065612;28;20231;-65
2022/11/19 01:31:05;;;;;;;8.25;6.22;;;7.50;99.90;;;;;;5070542;28;20196;-66
2022/11/19 01:33:34;;;;;;;11.05;7.00;;;7.60;99.90;;;;;;5074327;28;20242;-66
2022/11/19 01:36:04;;;;;;;9.00;7.85;;;7.50;99.90;;;;;;5074131;28;20204;-66
2022/11/19 01:38:32;;;;;;;12.77;7.97;;;7.50;99.90;;;;;;5074742;28;20207;-67
2022/11/19 01:41:01;;;;;;;17.90;7.63;;;7.40;99.90;;;;;;5058318;28;20703;-66
2022/11/19 01:43:43;;;;;;;13.30;7.85;;;7.50;99.90;;;;;;5055175;28;20619;-67
2022/11/19 01:46:14;;;;;;;9.13;7.32;;;7.50;99.90;;;;;;5055429;28;20203;-66
2022/11/19 01:48:46;;;;;;;9.82;7.80;;;7.50;99.90;;;;;;5054643;28;20193;-66
2022/11/19 01:51:19;;;;;;;10.45;8.00;;;7.40;99.90;;;;;;5069008;28;20196;-65
2022/11/19 01:53:49;;;;;;;10.80;8.13;;;7.50;99.90;;;;;;5072677;28;20226;-66
2022/11/19 01:56:19;;;;;;;15.25;8.85;;;7.50;99.90;;;;;;5064968;28;20285;-66
2022/11/19 01:58:51;;;;;;;14.63;8.30;;;7.40;99.90;;;;;;5070225;28;20705;-66
2022/11/19 02:01:22;;;;;;;10.07;8.55;;;7.40;99.90;;;;;;5056306;28;20511;-66
2022/11/19 02:03:51;;;;;;;11.25;8.25;;;7.50;99.90;;;;;;5053250;28;20201;-66
2022/11/19 02:06:19;;;;;;;7.78;6.97;;;7.50;99.90;;;;;;5058272;28;20199;-67
2022/11/19 02:08:49;;;;;;;11.95;7.97;;;7.50;99.90;;;;;;5062904;28;20200;-65
2022/11/19 02:11:41;;;;;;;10.35;8.15;;;7.50;99.90;;;;;;5073507;28;20602;-65
2022/11/19 02:14:24;;;;;;;13.55;7.60;;;7.50;99.90;;;;;;5056446;28;20196;-65
2022/11/19 02:17:02;;;;;;;14.27;7.60;;;7.50;99.90;;;;;;5054546;28;20271;-66
2022/11/19 02:20:00;;;;;;;12.82;7.38;;;7.50;99.90;;;;;;5053661;28;20207;-65
2022/11/19 02:22:48;;;;;;;10.68;8.10;;;7.50;99.90;;;;;;5065394;28;20231;-65
2022/11/19 02:25:27;;;;;;;10.25;7.30;;;7.60;99.90;;;;;;5066610;28;20192;-65
2022/11/19 02:28:25;;;;;;;12.20;7.97;;;7.60;99.90;;;;;;5067862;28;20243;-65
2022/11/19 02:31:03;;;;;;;8.82;7.07;;;7.60;99.90;;;;;;5064305;28;20200;-66
2022/11/19 02:33:39;;;;;;;8.15;6.68;;;7.60;99.90;;;;;;5054500;28;20627;-66
2022/11/19 02:36:14;;;;;;;13.77;7.22;;;7.70;99.90;;;;;;5061062;28;20192;-65
2022/11/19 02:38:48;;;;;;;10.38;7.30;;;7.70;99.90;;;;;;5074329;28;20188;-65
2022/11/19 02:41:34;;;;;;;8.13;7.32;;;7.80;99.90;;;;;;5073273;28;20552;-65
2022/11/19 02:47:05;;;;;;;12.02;8.18;;;7.90;99.90;;;;;;5073728;28;20188;-66
2022/11/19 02:49:38;;;;;;;9.88;7.85;;;7.90;99.90;;;;;;5055451;28;20636;-66
2022/11/19 02:52:06;;;;;;;10.18;7.95;;;7.90;99.90;;;;;;5053274;28;20196;-66
2022/11/19 02:54:33;;;;;;;12.65;7.90;;;7.90;99.90;;;;;;5053667;28;20200;-65
2022/11/19 02:57:01;;;;;;;8.70;7.72;;;8.00;99.90;;;;;;5053214;28;20208;-66
2022/11/19 03:05:20;;;;;;;12.68;6.70;;;7.90;99.90;;;;;;5070558;28;20663;-66
2022/11/19 03:07:49;;;;;;;15.63;6.90;;;7.90;99.90;;;;;;5072721;28;20196;-66
2022/11/19 03:10:19;;;;;;;13.63;7.28;;;7.90;99.90;;;;;;5066318;28;20648;-65
2022/11/19 03:12:53;;;;;;;10.27;8.27;;;7.90;99.90;;;;;;5051827;28;20225;-65
2022/11/19 03:18:22;;;;;;;14.45;8.70;;;7.90;99.90;;;;;;5053266;28;20200;-65
2022/11/19 03:20:55;;;;;;;13.50;10.05;;;7.90;99.90;;;;;;5063087;28;20207;-65
2022/11/19 03:23:29;;;;;;;11.77;9.10;;;7.90;99.90;;;;;;5059961;28;20192;-66
2022/11/19 03:26:01;;;;;;;9.52;8.52;;;7.90;99.90;;;;;;5073590;28;20192;-66
2022/11/19 03:28:34;;;;;;;13.73;8.75;;;7.90;99.90;;;;;;5071594;28;20231;-65
2022/11/19 03:31:03;;;;;;;10.73;9.27;;;7.90;99.90;;;;;;5056136;28;20185;-65
2022/11/19 03:33:34;;;;;;;17.25;9.85;;;7.90;99.90;;;;;;5070163;28;20204;-66
2022/11/19 03:36:09;;;;;;;12.68;8.52;;;7.90;99.90;;;;;;5071186;28;20195;-66
2022/11/19 03:38:43;;;;;;;12.60;9.00;;;7.90;99.90;;;;;;5052284;28;20246;-66
2022/11/19 03:41:15;;;;;;;17.42;8.82;;;7.90;99.90;;;;;;5054061;28;20217;-65
2022/11/19 03:43:45;;;;;;;12.10;8.20;;;7.90;99.90;;;;;;5065692;28;20279;-66
2022/11/19 03:46:17;;;;;;;11.40;8.93;;;7.90;99.90;;;;;;5065179;28;20553;-66
2022/11/19 03:48:49;;;;;;;12.45;9.80;;;7.90;99.90;;;;;;5056944;28;20569;-65
2022/11/19 03:51:21;;;;;;;13.70;9.23;;;7.90;99.90;;;;;;5062109;28;20188;-65
2022/11/19 03:53:49;;;;;;;13.73;8.52;;;7.90;99.90;;;;;;5071075;28;20184;-66
2022/11/19 03:56:21;;;;;;;10.93;7.85;;;7.90;99.90;;;;;;5067525;28;20207;-65
2022/11/19 03:58:49;;;;;;;10.50;8.27;;;7.90;99.90;;;;;;5062897;28;20223;-66
2022/11/19 04:01:17;;;;;;;9.13;7.93;;;7.90;99.90;;;;;;5067947;28;20219;-65
2022/11/19 04:06:28;;;;;;;7.68;6.95;;;7.90;99.90;;;;;;5054952;28;20576;-66
2022/11/19 04:08:56;;;;;;;7.50;6.72;;;8.00;99.90;;;;;;5055641;28;20211;-66
2022/11/19 04:11:24;;;;;;;12.15;8.00;;;8.00;99.90;;;;;;5051737;28;20294;-65
2022/11/19 04:13:52;;;;;;;13.98;7.38;;;8.00;99.90;;;;;;5065690;28;20207;-66
2022/11/19 04:16:20;;;;;;;8.75;7.00;;;8.00;99.90;;;;;;5051719;28;20262;-65
2022/11/19 04:18:49;;;;;;;7.97;7.18;;;8.00;99.90;;;;;;5052239;28;20201;-66
2022/11/19 04:21:17;;;;;;;8.48;7.15;;;8.00;99.90;;;;;;5064273;28;20214;-66
2022/11/19 04:23:45;;;;;;;14.55;7.70;;;8.00;99.90;;;;;;5068663;28;20250;-67
2022/11/19 04:26:12;;;;;;;10.63;6.43;;;8.00;99.90;;;;;;5066367;28;20199;-66
2022/11/19 04:28:41;;;;;;;8.70;6.70;;;8.00;99.90;;;;;;5052794;28;20224;-66
2022/11/19 04:31:08;;;;;;;16.90;13.25;;;8.00;99.90;;;;;;5062616;28;20215;-66
2022/11/19 04:33:36;;;;;;;33.10;21.50;;;8.00;99.90;;;;;;5051705;28;20207;-66
2022/11/19 04:36:06;;;;;;;22.38;13.63;;;8.00;99.90;;;;;;5065623;28;20631;-67
2022/11/19 04:38:34;;;;;;;18.27;10.82;;;8.00;99.90;;;;;;5071761;28;20261;-66
2022/11/19 04:41:02;;;;;;;12.35;10.57;;;8.00;99.90;;;;;;5072088;28;20293;-66
2022/11/19 04:43:30;;;;;;;20.20;14.90;;;8.00;99.90;;;;;;5071869;28;20231;-66
2022/11/19 04:45:58;;;;;;;35.13;23.77;;;8.00;99.90;;;;;;5071876;28;20199;-67
2022/11/19 04:48:25;;;;;;;44.92;31.90;;;8.00;99.90;;;;;;5060706;28;20550;-66
2022/11/19 04:50:53;;;;;;;121.60;79.82;;;7.90;99.90;;;;;;5070066;28;20196;-67
2022/11/19 04:53:23;;;;;;;41.72;25.92;;;7.90;99.90;;;;;;5071296;28;20559;-67
2022/11/19 04:55:51;;;;;;;35.63;24.55;;;7.90;99.90;;;;;;5061632;28;20204;-66
2022/11/19 04:58:18;;;;;;;34.85;24.33;;;7.90;99.90;;;;;;5069428;28;20200;-66
2022/11/19 05:00:48;;;;;;;19.88;15.55;;;7.90;99.90;;;;;;5071822;28;20212;-66
2022/11/19 05:03:16;;;;;;;25.45;16.83;;;7.90;99.90;;;;;;5068326;28;20642;-66
2022/11/19 05:05:44;;;;;;;120.47;66.95;;;7.90;99.90;;;;;;5069759;28;20203;-66
2022/11/19 05:08:12;;;;;;;9.98;6.40;;;7.90;99.90;;;;;;5054056;28;20196;-66
2022/11/19 05:10:41;;;;;;;9.50;6.60;;;7.90;99.90;;;;;;5052150;28;20563;-68
2022/11/19 05:13:09;;;;;;;11.30;7.18;;;7.90;99.90;;;;;;5051235;28;20208;-66
2022/11/19 05:15:37;;;;;;;13.32;7.57;;;7.90;99.90;;;;;;5053162;28;20211;-66
2022/11/19 05:18:05;;;;;;;9.63;8.60;;;7.90;99.90;;;;;;5056752;28;20204;-66
2022/11/19 05:20:32;;;;;;;44.13;25.25;;;7.80;99.90;;;;;;5051637;28;20217;-66
2022/11/19 05:23:00;;;;;;;18.58;14.52;;;7.80;99.90;;;;;;5059634;28;20207;-70
2022/11/19 05:25:28;;;;;;;8.30;6.95;;;7.80;99.90;;;;;;5051444;28;20637;-66
2022/11/19 05:27:57;;;;;;;11.13;5.72;;;7.80;99.90;;;;;;5062710;28;20224;-66
2022/11/19 05:30:25;;;;;;;8.75;6.55;;;7.80;99.90;;;;;;5068414;28;20523;-66
2022/11/19 05:32:53;;;;;;;10.05;8.27;;;7.80;99.90;;;;;;5071308;28;20212;-66
2022/11/19 05:35:21;;;;;;;8.40;4.82;;;7.80;99.90;;;;;;5070403;28;20196;-66
2022/11/19 05:37:49;;;;;;;7.55;4.75;;;7.80;99.90;;;;;;5061084;28;20706;-66
2022/11/19 05:40:18;;;;;;;5.80;5.30;;;7.80;99.90;;;;;;5053371;28;20201;-66
2022/11/19 05:42:46;;;;;;;7.75;4.80;;;7.80;99.90;;;;;;5061154;28;20211;-66
2022/11/19 05:45:15;;;;;;;7.35;4.18;;;7.80;99.90;;;;;;5059073;28;20201;-66
2022/11/19 05:47:43;;;;;;;5.20;4.70;;;7.80;99.90;;;;;;5064508;28;20266;-66
2022/11/19 05:50:11;;;;;;;4.03;3.72;;;7.80;99.90;;;;;;5074121;28;20200;-66
2022/11/19 05:52:39;;;;;;;4.85;3.53;;;7.80;99.90;;;;;;5057180;28;20207;-66
2022/11/19 05:55:07;;;;;;;6.50;4.13;;;7.80;99.90;;;;;;5054829;28;20212;-67
2022/11/19 05:57:35;;;;;;;4.15;3.75;;;7.80;99.90;;;;;;5061037;28;20199;-66
2022/11/19 06:00:05;;;;;;;4.57;4.18;;;7.80;99.90;;;;;;5070300;28;20196;-66
2022/11/19 06:02:41;;;;;;;10.85;3.75;;;7.80;99.90;;;;;;5072933;28;20191;-66
2022/11/19 06:05:10;;;;;;;4.30;4.00;;;7.80;99.90;;;;;;5071831;28;20211;-66
2022/11/19 06:07:38;;;;;;;6.43;4.78;;;7.80;99.90;;;;;;5070302;28;20223;-66
2022/11/19 06:10:07;;;;;;;10.68;4.43;;;7.80;99.90;;;;;;5066503;28;20705;-66
2022/11/19 06:12:35;;;;;;;6.10;4.15;;;7.90;99.90;;;;;;5073995;28;20220;-65
2022/11/19 06:15:05;;;;;;;6.70;5.30;;;7.80;99.90;;;;;;5067488;28;20271;-66
2022/11/19 06:17:33;;;;;;;5.82;4.68;;;7.80;99.90;;;;;;5060401;28;20647;-66
2022/11/19 06:20:02;;;;;;;11.45;5.22;;;7.70;99.90;;;;;;5074167;28;20200;-66
2022/11/19 06:22:30;;;;;;;6.10;5.50;;;7.80;99.90;;;;;;5073673;28;20212;-66
2022/11/19 06:24:58;;;;;;;6.95;5.43;;;7.80;99.90;;;;;;5060562;28;20276;-66
2022/11/19 06:27:26;;;;;;;7.18;5.40;;;7.80;99.90;;;;;;5063511;28;20246;-65
2022/11/19 06:29:55;;;;;;;5.90;5.20;;;7.70;99.90;;;;;;5058035;28;20271;-66
2022/11/19 06:32:23;;;;;;;6.32;5.57;;;7.70;99.90;;;;;;5073210;28;20203;-65
2022/11/19 06:34:51;;;;;;;6.93;5.90;;;7.70;99.90;;;;;;5073593;28;20208;-66
2022/11/19 06:37:20;;;;;;;7.15;5.53;;;7.70;99.90;;;;;;5054444;28;20211;-66
2022/11/19 06:39:48;;;;;;;7.20;6.00;;;7.70;99.90;;;;;;5063679;28;20246;-67
2022/11/19 06:45:01;;;;;;;7.63;5.35;;;7.80;99.90;;;;;;5063640;28;20188;-66
2022/11/19 06:47:31;;;;;;;6.18;5.68;;;7.80;99.90;;;;;;5061168;28;20212;-66
2022/11/19 06:49:59;;;;;;;6.40;5.80;;;7.70;99.90;;;;;;5063130;28;20193;-67
2022/11/19 06:52:28;;;;;;;7.70;5.78;;;7.80;99.90;;;;;;5061278;28;20208;-66
2022/11/19 06:54:56;;;;;;;7.95;5.20;;;7.80;99.90;;;;;;5063247;28;20197;-66
2022/11/19 06:57:24;;;;;;;6.57;5.20;;;7.70;99.90;;;;;;5059831;28;20208;-66
2022/11/19 06:59:51;;;;;;;6.72;5.97;;;7.70;99.90;;;;;;5062395;28;20269;-66
2022/11/19 07:02:19;;;;;;;11.35;6.80;;;7.70;99.90;;;;;;5059433;28;20216;-66
2022/11/19 07:04:47;;;;;;;12.68;11.57;;;7.80;99.90;;;;;;5061669;28;20642;-66
2022/11/19 07:07:15;;;;;;;8.57;7.80;;;7.80;99.90;;;;;;5060693;28;20192;-66
2022/11/19 07:09:44;;;;;;;8.38;6.43;;;7.80;99.90;;;;;;5062913;28;20679;-66
2022/11/19 07:12:12;;;;;;;10.15;7.53;;;7.80;99.90;;;;;;5062425;28;20223;-66
2022/11/19 07:14:40;;;;;;;8.75;6.00;;;7.80;99.90;;;;;;5060112;28;20241;-66
2022/11/19 07:17:08;;;;;;;7.20;5.80;;;7.80;99.90;;;;;;5051257;28;20207;-66
2022/11/19 07:19:36;;;;;;;10.30;8.15;;;7.80;99.90;;;;;;5051181;28;20220;-66
2022/11/19 07:22:04;;;;;;;11.48;8.82;;;7.80;99.90;;;;;;5050914;28;20217;-67
2022/11/19 07:24:31;;;;;;;7.93;7.15;;;7.80;99.90;;;;;;5051518;28;20200;-66
2022/11/19 07:27:01;;;;;;;11.10;7.30;;;7.80;99.90;;;;;;5051376;28;20201;-66
2022/11/19 07:29:29;;;;;;;9.70;7.50;;;7.80;99.90;;;;;;5053633;28;20635;-65
2022/11/19 07:31:56;;;;;;;11.27;6.63;;;7.90;99.90;;;;;;5062199;28;20208;-65
2022/11/19 07:34:24;;;;;;;13.20;7.20;;;7.80;99.90;;;;;;5066068;28;20197;-66
2022/11/19 07:36:52;;;;;;;9.13;7.20;;;7.80;99.90;;;;;;5058687;28;20204;-66
2022/11/19 07:39:20;;;;;;;13.05;7.88;;;7.80;99.90;;;;;;5066130;28;20614;-66
2022/11/19 07:44:35;;;;;;;10.50;7.18;;;7.90;99.90;;;;;;5051204;28;20557;-65
2022/11/19 07:47:03;;;;;;;10.70;6.22;;;7.90;99.90;;;;;;5051740;28;20558;-66
2022/11/19 07:49:31;;;;;;;11.20;8.13;;;7.90;99.90;;;;;;5051966;28;20204;-66
2022/11/19 07:51:59;;;;;;;13.55;11.50;;;7.90;99.90;;;;;;5051265;28;20573;-65
2022/11/19 07:54:27;;;;;;;10.23;8.50;;;7.90;99.90;;;;;;5053891;28;20203;-67
2022/11/19 07:56:55;;;;;;;14.55;11.82;;;7.90;99.90;;;;;;5066670;28;20662;-65
2022/11/19 07:59:23;;;;;;;13.30;8.25;;;7.90;99.90;;;;;;5067510;28;20200;-65
2022/11/19 08:01:53;;;;;;;7.68;6.88;;;7.90;99.90;;;;;;5050860;28;20593;-66
2022/11/19 08:04:21;;;;;;;12.15;7.25;;;7.90;99.90;;;;;;5051247;28;20209;-66
2022/11/19 08:06:49;;;;;;;8.00;7.22;;;7.90;99.90;;;;;;5053587;28;20201;-66
2022/11/19 08:09:16;;;;;;;11.25;6.55;;;7.90;99.90;;;;;;5068320;28;20563;-65
2022/11/19 08:11:44;;;;;;;7.25;6.55;;;7.90;99.90;;;;;;5071645;28;20216;-65
2022/11/19 08:14:12;;;;;;;7.80;6.07;;;7.90;99.90;;;;;;5070688;28;20207;-66
2022/11/19 08:19:39;;;;;;;7.85;6.63;;;8.00;99.90;;;;;;4970859;28;20210;-67
2022/11/19 08:22:06;;;;;;;9.10;6.88;;;8.00;99.90;;;;;;5042201;28;20620;-66
2022/11/19 08:24:34;;;;;;;8.85;7.35;;;8.00;99.90;;;;;;5052715;28;20207;-66
2022/11/19 08:27:04;;;;;;;15.18;7.90;;;8.00;99.90;;;;;;5055533;28;20253;-65
2022/11/19 08:29:32;;;;;;;7.28;6.60;;;8.00;99.90;;;;;;5065004;28;20224;-67
2022/11/19 08:32:00;;;;;;;7.97;7.05;;;8.00;99.90;;;;;;5062849;28;20607;-66
2022/11/19 08:34:27;;;;;;;11.80;7.07;;;8.00;99.90;;;;;;5057864;28;20651;-66
2022/11/19 08:36:57;;;;;;;5.95;4.93;;;8.10;99.90;;;;;;5066588;28;20208;-65
2022/11/19 08:39:24;;;;;;;11.20;5.93;;;8.10;99.90;;;;;;5068965;28;20203;-65
2022/11/19 08:44:38;;;;;;;6.93;5.90;;;8.20;99.90;;;;;;5057244;28;20207;-66
2022/11/19 08:47:06;;;;;;;7.85;6.45;;;8.20;99.90;;;;;;5051241;28;20207;-66
2022/11/19 08:49:33;;;;;;;7.57;4.63;;;8.20;99.90;;;;;;5064724;28;20661;-66
2022/11/19 08:52:03;;;;;;;5.38;4.35;;;8.20;99.90;;;;;;5054575;28;20189;-66
2022/11/19 08:54:31;;;;;;;6.85;4.78;;;8.20;99.90;;;;;;5051694;28;20227;-67
2022/11/19 08:56:59;;;;;;;8.30;4.45;;;8.20;99.90;;;;;;5050993;28;20189;-66
2022/11/19 08:59:27;;;;;;;6.55;3.83;;;8.20;99.90;;;;;;5055965;28;20209;-66
2022/11/19 09:01:55;;;;;;;4.55;3.20;;;8.30;99.90;;;;;;5059061;28;20268;-66
2022/11/19 09:04:23;;;;;;;4.38;3.95;;;8.20;99.90;;;;;;5058719;28;20309;-66
2022/11/19 09:06:51;;;;;;;8.02;4.20;;;8.20;99.90;;;;;;5068420;28;20594;-66
2022/11/19 09:09:20;;;;;;;5.35;3.67;;;8.20;99.90;;;;;;5051674;28;20200;-66
2022/11/19 09:11:48;;;;;;;10.05;4.85;;;8.20;99.90;;;;;;5054643;28;20634;-65
2022/11/19 09:14:16;;;;;;;4.85;3.70;;;8.10;99.90;;;;;;5058231;28;20666;-66
2022/11/19 09:16:44;;;;;;;8.85;3.75;;;8.20;99.90;;;;;;5063302;28;20205;-66
2022/11/19 09:19:11;;;;;;;5.85;3.55;;;8.20;99.90;;;;;;5061263;28;20200;-66
2022/11/19 09:21:39;;;;;;;7.05;3.90;;;8.20;99.90;;;;;;5064780;28;20189;-66
2022/11/19 09:24:08;;;;;;;5.22;3.83;;;8.20;99.90;;;;;;5063081;28;20278;-66
2022/11/19 09:26:52;;;;;;;9.30;3.92;;;8.10;99.90;;;;;;5063183;28;20744;-65
2022/11/19 09:29:20;;;;;;;12.77;9.15;;;8.20;99.90;;;;;;5059764;28;20228;-66
2022/11/19 09:31:48;;;;;;;3.80;3.50;;;8.20;99.90;;;;;;5060374;28;20200;-66
2022/11/19 09:34:15;;;;;;;3.63;3.35;;;8.20;99.90;;;;;;5055501;28;20197;-66
2022/11/19 09:36:43;;;;;;;5.68;3.17;;;8.20;99.90;;;;;;5055816;28;20303;-66
2022/11/19 09:39:11;;;;;;;6.65;4.95;;;8.20;99.90;;;;;;5071492;28;20229;-66
2022/11/19 09:41:47;;;;;;;8.48;7.53;;;8.20;99.90;;;;;;5081980;28;20199;-66
2022/11/19 09:44:31;;;;;;;6.95;4.15;;;8.20;99.90;;;;;;5062596;28;20208;-66
2022/11/19 09:47:12;;;;;;;8.07;4.38;;;8.20;99.90;;;;;;5069620;28;20662;-66
2022/11/19 09:49:46;;;;;;;9.27;4.72;;;8.20;99.90;;;;;;5058825;28;20205;-63
2022/11/19 09:52:19;;;;;;;8.55;5.15;;;8.20;99.90;;;;;;5063461;28;20614;-65
2022/11/19 09:54:49;;;;;;;12.10;5.35;;;8.20;99.90;;;;;;5066441;28;20197;-66
2022/11/19 09:57:24;;;;;;;13.00;11.65;;;8.20;99.90;;;;;;5062421;28;20200;-66
2022/11/19 09:59:57;;;;;;;18.20;8.95;;;8.30;99.90;;;;;;5058034;28;20254;-66
2022/11/19 10:02:25;;;;;;;5.43;4.05;;;8.40;99.90;;;;;;5061437;28;20211;-66
2022/11/19 10:04:53;;;;;;;4.18;3.75;;;8.40;99.90;;;;;;5061443;28;20196;-66
2022/11/19 10:07:30;;;;;;;7.07;3.35;;;8.40;99.90;;;;;;5060533;28;20562;-65
2022/11/19 10:10:15;;;;;;;4.32;3.50;;;8.40;99.90;;;;;;5068529;28;20207;-65
2022/11/19 10:13:10;;;;;;;4.10;3.50;;;8.50;99.90;;;;;;5058206;28;20614;-66
2022/11/19 10:15:51;;;;;;;8.52;4.10;;;8.40;99.90;;;;;;5055794;28;20205;-65
2022/11/19 10:18:26;;;;;;;4.70;3.40;;;8.40;99.90;;;;;;5059079;28;20200;-66
2022/11/19 10:21:03;;;;;;;7.07;3.83;;;8.50;99.90;;;;;;5065578;28;20597;-66
2022/11/19 10:23:43;;;;;;;4.88;3.58;;;8.40;99.90;;;;;;5053469;28;20706;-66
2022/11/19 10:26:14;;;;;;;5.30;3.70;;;8.50;99.90;;;;;;5051954;28;20191;-65
2022/11/19 10:28:49;;;;;;;3.13;2.85;;;8.60;99.90;;;;;;5054008;28;20233;-66
2022/11/19 10:31:27;;;;;;;10.60;5.18;;;8.60;99.90;;;;;;5053495;28;20639;-66
2022/11/19 10:34:01;;;;;;;8.02;3.83;;;8.60;99.90;;;;;;5055424;28;20189;-65
2022/11/19 10:36:34;;;;;;;8.63;6.07;;;8.60;99.90;;;;;;5073172;28;20192;-64
2022/11/19 10:39:06;;;;;;;6.03;3.63;;;8.60;99.90;;;;;;5074283;28;20192;-64
2022/11/19 10:41:37;;;;;;;6.82;6.22;;;8.50;99.90;;;;;;5073752;28;20422;-64
2022/11/19 10:44:36;;;;;;;6.65;3.95;;;8.60;99.90;;;;;;5073438;28;20200;-65
2022/11/19 10:47:07;;;;;;;6.90;4.00;;;8.50;99.90;;;;;;5073205;28;20200;-64
2022/11/19 10:49:39;;;;;;;6.30;3.40;;;8.50;99.90;;;;;;5073267;28;20188;-65
2022/11/19 10:52:25;;;;;;;3.50;3.20;;;8.60;99.90;;;;;;5052615;28;20629;-64
2022/11/19 10:54:58;;;;;;;5.20;3.83;;;8.50;99.90;;;;;;5058243;28;20196;-64
2022/11/19 10:57:28;;;;;;;5.07;3.50;;;8.50;99.90;;;;;;5073393;28;20199;-64
2022/11/19 10:59:57;;;;;;;4.03;3.65;;;8.60;99.90;;;;;;5061973;28;20209;-64
2022/11/19 11:02:31;;;;;;;3.97;3.58;;;8.50;99.90;;;;;;5052748;28;20200;-64
2022/11/19 11:05:08;;;;;;;6.03;4.45;;;8.60;99.90;;;;;;5052098;28;20242;-64
2022/11/19 11:08:00;;;;;;;5.05;4.05;;;8.60;99.90;;;;;;5056437;28;20196;-64
2022/11/19 11:10:36;;;;;;;5.10;4.25;;;8.60;99.90;;;;;;5052278;28;20228;-64
2022/11/19 11:16:18;;;;;;;5.78;3.80;;;8.50;99.90;;;;;;4991249;28;20206;-65
2022/11/19 11:18:48;;;;;;;7.93;5.93;;;8.50;99.90;;;;;;4974961;28;20190;-64
2022/11/19 11:21:29;;;;;;;5.57;4.88;;;8.50;99.90;;;;;;5021017;28;20267;-65
2022/11/19 11:23:59;;;;;;;5.63;4.95;;;8.60;99.90;;;;;;5052216;28;20219;-64
2022/11/19 11:26:29;;;;;;;9.98;4.35;;;8.60;99.90;;;;;;5055708;28;20216;-65
2022/11/19 11:29:01;;;;;;;5.75;5.15;;;8.60;99.90;;;;;;5052193;28;20601;-65
2022/11/19 11:31:31;;;;;;;5.35;4.85;;;8.70;99.90;;;;;;5052740;28;20185;-64
2022/11/19 11:34:02;;;;;;;4.65;4.15;;;8.70;99.90;;;;;;5055384;28;20268;-64
2022/11/19 11:36:33;;;;;;;5.88;4.72;;;8.70;99.90;;;;;;5057993;28;20253;-65
2022/11/19 11:39:03;;;;;;;8.98;5.90;;;8.70;99.90;;;;;;5070806;28;20202;-64
2022/11/19 11:41:37;;;;;;;7.07;6.38;;;8.80;99.90;;;;;;5065337;28;20204;-63
2022/11/19 11:44:07;;;;;;;7.05;6.45;;;8.60;99.90;;;;;;5068709;28;20661;-63
2022/11/19 11:46:39;;;;;;;7.22;6.60;;;7.80;99.90;;;;;;5070854;28;20188;-66
2022/11/19 11:49:20;;;;;;;8.02;7.00;;;7.50;99.90;;;;;;5056480;28;20544;-64
2022/11/19 11:51:55;;;;;;;9.45;8.15;;;7.50;99.90;;;;;;5053156;28;20200;-64
2022/11/19 11:54:22;;;;;;;9.52;8.55;;;7.40;99.90;;;;;;5057701;28;20199;-66
2022/11/19 11:56:50;;;;;;;9.25;8.25;;;7.10;99.90;;;;;;5063017;28;20209;-64
2022/11/19 11:59:26;;;;;;;10.75;7.80;;;6.90;99.90;;;;;;5068401;28;20207;-64
2022/11/19 12:01:55;;;;;;;11.32;9.80;;;6.70;99.90;;;;;;5050379;28;20204;-65
2022/11/19 12:04:25;;;;;;;10.80;8.60;;;6.50;99.90;;;;;;5050794;28;20247;-65
2022/11/19 12:07:03;;;;;;;12.82;10.30;;;6.40;99.90;;;;;;5052729;28;20208;-65
2022/11/19 12:09:41;;;;;;;9.90;8.90;;;6.30;99.90;;;;;;5051860;28;20202;-64
2022/11/19 12:12:17;;;;;;;10.52;7.90;;;6.20;99.90;;;;;;5050501;28;20691;-64
2022/11/19 12:14:53;;;;;;;11.38;7.32;;;6.10;99.90;;;;;;5051865;28;20192;-65
2022/11/19 12:17:42;;;;;;;9.27;8.35;;;6.00;99.90;;;;;;5052208;28;20192;-64
2022/11/19 12:20:27;;;;;;;9.85;8.85;;;6.10;99.90;;;;;;5056985;28;20566;-66
2022/11/19 12:23:22;;;;;;;14.15;9.07;;;6.20;99.90;;;;;;5062766;28;20317;-65
2022/11/19 12:26:01;;;;;;;9.07;7.93;;;6.30;99.90;;;;;;5052474;28;20193;-66
2022/11/19 12:28:54;;;;;;;9.07;8.23;;;6.20;99.90;;;;;;5051569;28;20239;-65
2022/11/19 12:31:35;;;;;;;10.13;9.00;;;6.10;99.90;;;;;;5063717;28;20192;-65
2022/11/19 12:34:22;;;;;;;7.60;6.28;;;6.20;99.90;;;;;;5067814;28;20184;-66
2022/11/19 12:37:00;;;;;;;9.57;7.05;;;6.30;99.90;;;;;;5066295;28;20188;-65
2022/11/19 12:39:38;;;;;;;12.18;8.63;;;6.10;99.90;;;;;;5069063;28;20187;-65
2022/11/19 12:42:29;;;;;;;9.98;8.55;;;6.00;99.90;;;;;;5065785;28;20289;-65
2022/11/19 12:45:05;;;;;;;9.63;7.45;;;6.00;99.90;;;;;;5057505;28;20720;-64
2022/11/19 12:47:52;;;;;;;9.43;7.85;;;6.00;99.90;;;;;;5061321;28;20653;-65
2022/11/19 12:50:23;;;;;;;12.65;8.48;;;5.90;99.90;;;;;;5060717;28;20199;-64
2022/11/19 12:53:23;;;;;;;12.98;8.02;;;5.90;99.90;;;;;;5065353;28;20189;-65
2022/11/19 12:56:00;;;;;;;7.93;6.38;;;5.90;99.90;;;;;;5061215;28;20667;-65
2022/11/19 12:58:39;;;;;;;8.23;7.00;;;5.90;99.90;;;;;;5069107;28;20189;-65
2022/11/19 13:01:12;;;;;;;12.95;8.70;;;5.80;99.90;;;;;;5061296;28;20577;-65
2022/11/19 13:03:50;;;;;;;11.32;8.85;;;5.80;99.90;;;;;;5061281;28;20193;-65
2022/11/19 13:06:22;;;;;;;9.65;6.90;;;5.80;99.90;;;;;;5073891;28;20199;-66
2022/11/19 13:08:55;;;;;;;10.32;7.50;;;5.70;99.90;;;;;;5074270;28;20678;-65
2022/11/19 13:11:28;;;;;;;7.10;6.38;;;5.60;99.90;;;;;;5072036;28;20224;-66
2022/11/19 13:14:00;;;;;;;8.82;7.03;;;5.60;99.90;;;;;;5064198;28;20528;-65
2022/11/19 13:16:30;;;;;;;15.27;7.30;;;5.60;99.90;;;;;;5073821;28;20200;-65
2022/11/19 13:19:08;;;;;;;10.60;7.25;;;5.70;99.90;;;;;;5056456;28;20559;-65
2022/11/19 13:21:43;;;;;;;9.40;7.60;;;5.70;99.90;;;;;;5072834;28;20210;-65
2022/11/19 13:24:28;;;;;;;8.60;7.70;;;5.70;99.90;;;;;;5054071;28;20268;-65
2022/11/19 13:27:01;;;;;;;9.32;6.50;;;5.60;99.90;;;;;;5055027;28;20246;-65
2022/11/19 13:29:41;;;;;;;5.57;5.05;;;5.70;99.90;;;;;;5056721;28;20228;-65
2022/11/19 13:32:18;;;;;;;8.23;6.60;;;5.60;99.90;;;;;;5066022;28;20216;-66
2022/11/19 13:35:02;;;;;;;5.70;5.20;;;5.40;99.90;;;;;;5054954;28;20204;-65
2022/11/19 13:37:47;;;;;;;6.50;5.40;;;5.30;99.90;;;;;;5062062;28;20192;-65
2022/11/19 13:40:23;;;;;;;7.18;6.47;;;5.40;99.90;;;;;;5069462;28;20196;-65
2022/11/19 13:45:38;;;;;;;7.28;5.78;;;5.30;99.90;;;;;;5055397;28;20217;-65
2022/11/19 13:48:24;;;;;;;5.78;5.00;;;5.30;99.90;;;;;;5055500;28;20205;-63